Time;durP1;ratioP1;P1;durP2;ratioP2;P2;SDS_P1;SDS_P2;PMS_P1;PMS_P2;Temp;Humidity;BMP_temperature;BMP_pressure;BME280_temperature;BME280_humidity;BME280_pressure;Samples;Min_cycle;Max_cycle;Signal;HPM_P1;HPM_P2
2021/08/08 00:00:38;;;;;;;6.00;2.38;;;23.00;91.60;;;;;;5029239;28;20524;-57
2021/08/08 00:03:42;;;;;;;7.50;2.50;;;22.90;91.70;;;;;;5028993;28;20042;-58
2021/08/08 00:06:46;;;;;;;7.88;2.55;;;22.80;91.70;;;;;;5045210;22;20037;-49
2021/08/08 00:09:50;;;;;;;9.30;2.50;;;22.80;91.80;;;;;;5001961;28;20054;-53
2021/08/08 00:12:54;;;;;;;8.25;3.03;;;22.70;92.00;;;;;;5009668;28;20127;-55
2021/08/08 00:15:58;;;;;;;4.50;2.30;;;22.70;92.00;;;;;;5009672;28;20048;-52
2021/08/08 00:19:02;;;;;;;5.50;2.53;;;22.70;92.10;;;;;;4970555;28;20054;-54
2021/08/08 00:22:07;;;;;;;7.93;2.80;;;22.60;92.20;;;;;;4970679;28;20043;-55
2021/08/08 00:25:12;;;;;;;4.30;2.38;;;22.60;92.30;;;;;;4975875;28;20034;-54
2021/08/08 00:28:17;;;;;;;6.53;2.75;;;22.50;92.50;;;;;;4989653;28;20042;-54
2021/08/08 00:31:24;;;;;;;7.65;2.40;;;22.50;92.50;;;;;;4988253;28;20034;-55
2021/08/08 00:34:44;;;;;;;6.07;2.42;;;22.50;92.60;;;;;;4988986;28;20030;-54
2021/08/08 00:37:49;;;;;;;7.88;2.47;;;22.50;92.70;;;;;;4971839;28;20445;-53
2021/08/08 00:40:54;;;;;;;5.43;2.80;;;22.40;92.70;;;;;;4999573;28;20421;-55
2021/08/08 00:44:00;;;;;;;8.30;2.67;;;22.40;92.90;;;;;;4992965;28;20038;-54
2021/08/08 00:47:05;;;;;;;8.18;2.88;;;22.30;93.00;;;;;;4993060;28;20050;-55
2021/08/08 00:50:11;;;;;;;5.57;2.25;;;22.30;93.10;;;;;;4973294;28;20043;-55
2021/08/08 00:53:15;;;;;;;8.35;2.63;;;22.20;93.20;;;;;;4985058;28;20524;-54
2021/08/08 00:56:22;;;;;;;6.75;2.60;;;21.90;93.90;;;;;;4973287;28;20047;-55
2021/08/08 00:59:28;;;;;;;6.50;2.72;;;21.70;94.30;;;;;;4973136;28;20046;-55
2021/08/08 01:02:38;;;;;;;5.05;2.80;;;21.70;94.30;;;;;;4974131;28;20508;-50
2021/08/08 01:05:52;;;;;;;7.38;2.72;;;21.70;94.20;;;;;;4982853;28;20057;-51
2021/08/08 01:09:04;;;;;;;6.07;2.75;;;21.70;94.30;;;;;;4992219;28;20047;-55
2021/08/08 01:12:14;;;;;;;8.38;2.90;;;21.60;94.50;;;;;;4992053;28;20045;-56
2021/08/08 01:15:23;;;;;;;7.03;2.70;;;21.70;94.70;;;;;;4992001;28;20414;-49
2021/08/08 01:18:28;;;;;;;10.15;2.83;;;21.70;94.50;;;;;;4991647;28;20042;-51
2021/08/08 01:21:34;;;;;;;6.80;2.60;;;21.60;94.90;;;;;;4991856;28;20405;-53
2021/08/08 01:24:40;;;;;;;7.85;2.70;;;21.60;95.00;;;;;;4991930;28;20504;-51
2021/08/08 01:28:00;;;;;;;7.53;2.80;;;21.60;95.10;;;;;;4991742;28;20038;-50
2021/08/08 01:31:07;;;;;;;6.07;3.17;;;21.50;95.40;;;;;;4991570;28;20039;-54
2021/08/08 01:34:11;;;;;;;8.48;3.50;;;21.40;95.60;;;;;;4991684;28;20114;-55
2021/08/08 01:37:20;;;;;;;6.55;2.53;;;21.50;95.80;;;;;;4991580;28;20057;-55
2021/08/08 01:40:56;;;;;;;5.90;2.40;;;21.50;95.90;;;;;;4991145;28;20512;-50
2021/08/08 01:44:03;;;;;;;10.82;3.47;;;21.50;96.10;;;;;;4991675;28;20037;-54
2021/08/08 01:47:14;;;;;;;13.63;3.10;;;21.60;96.10;;;;;;4991502;28;20045;-55
2021/08/08 01:50:21;;;;;;;6.18;2.58;;;21.40;96.40;;;;;;4991382;28;20048;-52
2021/08/08 01:53:27;;;;;;;5.90;2.90;;;21.50;96.50;;;;;;4991649;28;20042;-54
2021/08/08 01:56:31;;;;;;;12.23;2.60;;;21.60;96.50;;;;;;4991438;28;20041;-55
2021/08/08 01:59:37;;;;;;;9.38;2.50;;;21.70;96.50;;;;;;4991045;28;20508;-48
2021/08/08 02:02:57;;;;;;;4.78;2.50;;;21.80;96.30;;;;;;4991035;28;20053;-53
2021/08/08 02:06:13;;;;;;;7.40;2.43;;;21.90;96.00;;;;;;4991250;28;20046;-54
2021/08/08 02:09:24;;;;;;;6.68;2.60;;;21.80;96.30;;;;;;4991557;28;20050;-48
2021/08/08 02:12:28;;;;;;;6.80;2.40;;;21.90;96.10;;;;;;4991178;28;20432;-55
2021/08/08 02:15:33;;;;;;;5.85;2.58;;;22.00;96.20;;;;;;4991303;28;20041;-55
2021/08/08 02:18:42;;;;;;;7.80;2.50;;;22.30;96.00;;;;;;4990986;28;20053;-53
2021/08/08 02:21:49;;;;;;;6.05;2.47;;;22.60;95.80;;;;;;4990999;28;20034;-52
2021/08/08 02:24:57;;;;;;;10.52;3.03;;;22.90;95.50;;;;;;4991400;28;20061;-53
2021/08/08 02:28:10;;;;;;;6.60;2.90;;;23.10;95.10;;;;;;4989608;28;20053;-51
2021/08/08 02:31:18;;;;;;;6.85;2.63;;;23.20;95.30;;;;;;4990717;28;20042;-56
2021/08/08 02:34:24;;;;;;;6.35;2.40;;;23.40;95.50;;;;;;4990679;28;20042;-54
2021/08/08 02:37:29;;;;;;;10.10;3.72;;;23.70;95.00;;;;;;4990666;28;20042;-55
2021/08/08 02:40:33;;;;;;;10.80;3.25;;;24.10;95.70;;;;;;4991234;28;20049;-49
2021/08/08 02:43:39;;;;;;;5.30;2.33;;;24.30;95.00;;;;;;4979466;28;20040;-49
2021/08/08 02:46:44;;;;;;;10.10;2.85;;;24.10;94.90;;;;;;4990400;28;20045;-50
2021/08/08 02:49:49;;;;;;;10.70;2.90;;;24.20;95.80;;;;;;4990122;28;20491;-51
2021/08/08 02:52:53;;;;;;;5.60;2.25;;;24.10;95.30;;;;;;4990318;28;20037;-52
2021/08/08 02:56:00;;;;;;;10.65;2.60;;;24.10;95.60;;;;;;4991063;28;20604;-55
2021/08/08 02:59:05;;;;;;;6.35;2.50;;;23.90;95.40;;;;;;4989477;28;20053;-52
2021/08/08 03:02:09;;;;;;;7.78;2.80;;;23.80;95.70;;;;;;4989978;28;20045;-55
2021/08/08 03:05:14;;;;;;;7.43;2.78;;;23.90;95.70;;;;;;4991238;28;20046;-51
2021/08/08 03:08:18;;;;;;;9.45;2.83;;;23.80;95.80;;;;;;4989543;28;20061;-52
2021/08/08 03:11:23;;;;;;;8.10;2.83;;;23.60;95.90;;;;;;4989926;28;20054;-52
2021/08/08 03:14:27;;;;;;;7.43;2.70;;;23.60;96.10;;;;;;4989962;28;20042;-56
2021/08/08 03:17:32;;;;;;;7.18;2.88;;;23.40;96.70;;;;;;4989781;28;20051;-50
2021/08/08 03:20:37;;;;;;;5.72;2.83;;;23.50;97.00;;;;;;4990373;28;20046;-51
2021/08/08 03:23:42;;;;;;;7.25;3.38;;;23.60;96.70;;;;;;4990354;28;20045;-51
2021/08/08 03:26:46;;;;;;;10.55;2.90;;;23.60;97.10;;;;;;4990302;28;20068;-50
2021/08/08 03:29:51;;;;;;;7.80;2.30;;;23.50;97.50;;;;;;4989405;28;20037;-51
2021/08/08 03:32:55;;;;;;;6.63;2.85;;;23.50;98.10;;;;;;4989191;28;20042;-55
2021/08/08 03:36:00;;;;;;;9.02;2.90;;;23.50;98.10;;;;;;4989731;28;20049;-50
2021/08/08 03:39:05;;;;;;;5.90;2.88;;;23.20;98.10;;;;;;4989117;28;20049;-55
2021/08/08 03:42:09;;;;;;;6.97;2.92;;;23.30;98.70;;;;;;4989187;28;20046;-54
2021/08/08 03:45:15;;;;;;;8.57;2.95;;;23.10;98.70;;;;;;4989615;28;20519;-49
2021/08/08 03:48:21;;;;;;;6.07;2.28;;;22.60;97.80;;;;;;4989240;28;20034;-52
2021/08/08 03:51:25;;;;;;;7.97;2.72;;;22.40;98.80;;;;;;4989716;28;20042;-50
2021/08/08 03:54:30;;;;;;;10.00;2.90;;;22.40;98.90;;;;;;4990359;28;20041;-51
2021/08/08 03:57:34;;;;;;;10.57;2.83;;;22.30;99.50;;;;;;4990158;28;20042;-50
2021/08/08 04:00:45;;;;;;;12.43;3.00;;;22.30;99.90;;;;;;4989466;28;20061;-52
2021/08/08 04:03:50;;;;;;;6.10;3.30;;;22.20;99.90;;;;;;4989160;28;20041;-55
2021/08/08 04:06:54;;;;;;;9.60;3.03;;;22.30;99.90;;;;;;4989170;28;20053;-50
2021/08/08 04:09:59;;;;;;;9.75;2.83;;;22.30;99.90;;;;;;4989108;28;20031;-53
2021/08/08 04:13:03;;;;;;;16.48;3.47;;;22.50;99.90;;;;;;4993951;28;20410;-51
2021/08/08 04:16:07;;;;;;;8.02;3.42;;;22.60;99.90;;;;;;4993384;28;20057;-55
2021/08/08 04:19:11;;;;;;;9.60;3.05;;;22.50;99.90;;;;;;4993705;28;20950;-50
2021/08/08 04:22:15;;;;;;;13.52;3.25;;;22.60;99.90;;;;;;4993762;28;20059;-51
2021/08/08 04:25:20;;;;;;;8.15;3.22;;;22.70;99.90;;;;;;4993172;28;20050;-55
2021/08/08 04:28:25;;;;;;;16.30;3.95;;;22.90;99.90;;;;;;4992716;28;20050;-53
2021/08/08 04:31:30;;;;;;;11.45;3.42;;;23.00;99.90;;;;;;4992977;28;20046;-53
2021/08/08 04:34:34;;;;;;;10.23;3.33;;;23.10;99.90;;;;;;4992810;28;20049;-49
2021/08/08 04:37:38;;;;;;;11.90;3.00;;;23.20;99.90;;;;;;4992543;28;20053;-48
2021/08/08 04:40:43;;;;;;;9.43;2.85;;;23.30;99.90;;;;;;4992630;28;20053;-49
2021/08/08 04:43:48;;;;;;;7.90;3.10;;;23.50;99.90;;;;;;4992202;28;20122;-50
2021/08/08 04:46:52;;;;;;;7.10;2.55;;;23.50;99.90;;;;;;4993484;28;20507;-49
2021/08/08 04:49:56;;;;;;;11.07;3.22;;;23.50;99.90;;;;;;4993333;28;20038;-48
2021/08/08 04:53:01;;;;;;;9.20;3.70;;;23.50;99.90;;;;;;4992239;28;20033;-49
2021/08/08 04:56:06;;;;;;;10.25;3.42;;;23.60;99.90;;;;;;4992420;28;20070;-50
2021/08/08 04:59:10;;;;;;;11.10;4.00;;;23.70;99.90;;;;;;4992954;28;20050;-48
2021/08/08 05:02:20;;;;;;;7.45;3.20;;;23.70;99.90;;;;;;4992117;28;20041;-48
2021/08/08 05:05:25;;;;;;;7.68;3.22;;;23.60;99.90;;;;;;4992044;28;20034;-50
2021/08/08 05:08:30;;;;;;;9.68;3.80;;;23.60;99.90;;;;;;4992187;28;20042;-49
2021/08/08 05:11:34;;;;;;;10.38;3.17;;;23.60;99.90;;;;;;4992277;28;20049;-54
2021/08/08 05:14:39;;;;;;;9.02;3.30;;;23.60;99.90;;;;;;4991819;28;20049;-53
2021/08/08 05:17:43;;;;;;;6.07;3.10;;;23.50;99.90;;;;;;4991671;28;20055;-55
2021/08/08 05:20:47;;;;;;;8.85;2.88;;;23.30;99.90;;;;;;4992168;28;20426;-55
2021/08/08 05:23:51;;;;;;;10.23;3.42;;;23.30;99.90;;;;;;4991162;28;20035;-49
2021/08/08 05:26:56;;;;;;;12.85;3.13;;;23.50;99.90;;;;;;4991912;28;20056;-54
2021/08/08 05:30:04;;;;;;;7.90;3.05;;;23.60;99.90;;;;;;4991551;28;20044;-52
2021/08/08 05:33:10;;;;;;;11.68;3.30;;;23.70;99.90;;;;;;4991854;28;20208;-55
2021/08/08 05:36:14;;;;;;;7.90;3.47;;;23.60;99.90;;;;;;4991580;28;20061;-50
2021/08/08 05:39:18;;;;;;;12.00;3.50;;;23.40;99.90;;;;;;4991272;28;20057;-49
2021/08/08 05:42:22;;;;;;;7.88;2.70;;;23.30;99.90;;;;;;4991661;28;20404;-53
2021/08/08 05:45:28;;;;;;;9.45;4.00;;;23.40;99.90;;;;;;4991734;28;20034;-54
2021/08/08 05:48:32;;;;;;;7.25;2.50;;;23.50;99.90;;;;;;4992639;28;20041;-54
2021/08/08 05:51:37;;;;;;;10.15;3.40;;;23.60;99.90;;;;;;4992230;28;20054;-53
2021/08/08 05:54:41;;;;;;;7.95;3.13;;;23.70;99.90;;;;;;4991612;28;20597;-51
2021/08/08 05:57:46;;;;;;;7.45;3.47;;;24.00;99.90;;;;;;4992498;28;20039;-54
2021/08/08 06:00:52;;;;;;;6.28;2.90;;;24.10;99.90;;;;;;4991748;28;20501;-52
2021/08/08 06:03:57;;;;;;;7.28;2.95;;;24.20;99.90;;;;;;4991252;28;20049;-54
2021/08/08 06:07:01;;;;;;;12.27;3.28;;;24.30;99.90;;;;;;4991394;28;20408;-51
2021/08/08 06:10:06;;;;;;;7.32;2.90;;;24.70;99.90;;;;;;4991298;28;20049;-51
2021/08/08 06:13:10;;;;;;;7.35;3.30;;;24.90;99.90;;;;;;4991331;28;20047;-52
2021/08/08 06:16:16;;;;;;;7.15;2.92;;;24.90;99.90;;;;;;4991132;28;20038;-55
2021/08/08 06:19:21;;;;;;;10.77;4.38;;;24.70;99.90;;;;;;4991023;28;20421;-54
2021/08/08 06:22:25;;;;;;;10.88;3.38;;;23.80;99.90;;;;;;4991203;28;20512;-53
2021/08/08 06:25:30;;;;;;;7.97;2.80;;;23.90;99.90;;;;;;4990941;28;20512;-53
2021/08/08 06:28:34;;;;;;;9.23;3.40;;;23.90;99.90;;;;;;4991687;28;20053;-53
2021/08/08 06:31:38;;;;;;;9.82;3.20;;;23.90;99.90;;;;;;4991129;28;20065;-53
2021/08/08 06:34:43;;;;;;;10.35;3.05;;;24.00;99.90;;;;;;4989568;28;20409;-51
2021/08/08 06:37:48;;;;;;;7.43;3.10;;;24.20;99.90;;;;;;4991497;28;20049;-53
2021/08/08 06:40:54;;;;;;;6.97;2.67;;;24.30;99.90;;;;;;4990590;28;20038;-48
2021/08/08 06:44:01;;;;;;;8.63;2.90;;;24.50;99.90;;;;;;4990842;28;20041;-51
2021/08/08 06:47:05;;;;;;;12.05;2.88;;;24.60;99.90;;;;;;4990341;28;20508;-52
2021/08/08 06:50:10;;;;;;;11.80;3.30;;;24.80;99.90;;;;;;4990383;28;20045;-48
2021/08/08 06:53:15;;;;;;;9.88;3.00;;;24.70;99.90;;;;;;4990658;28;20041;-52
2021/08/08 06:56:19;;;;;;;9.52;2.72;;;24.90;99.90;;;;;;4990449;28;20405;-47
2021/08/08 06:59:29;;;;;;;9.50;2.90;;;25.30;99.90;;;;;;4991213;28;20042;-49
2021/08/08 07:02:34;;;;;;;7.23;2.93;;;25.50;99.90;;;;;;4990560;28;20520;-51
2021/08/08 07:05:40;;;;;;;10.88;3.05;;;25.50;99.90;;;;;;4990719;28;20509;-52
2021/08/08 07:08:45;;;;;;;8.27;2.95;;;25.80;99.90;;;;;;4989842;28;20444;-53
2021/08/08 07:11:50;;;;;;;7.65;3.03;;;25.90;99.90;;;;;;4989934;28;20046;-47
2021/08/08 07:15:07;;;;;;;13.57;3.33;;;26.40;99.90;;;;;;4989528;28;20031;-49
2021/08/08 07:18:13;;;;;;;8.15;3.60;;;27.40;99.90;;;;;;4989824;28;20057;-51
2021/08/08 07:21:18;;;;;;;8.02;2.83;;;28.30;99.50;;;;;;4989715;28;20547;-49
2021/08/08 07:24:23;;;;;;;8.60;3.15;;;30.00;96.90;;;;;;4989920;28;20312;-48
2021/08/08 07:27:28;;;;;;;7.15;2.67;;;31.30;95.30;;;;;;4989709;28;20049;-48
2021/08/08 07:30:33;;;;;;;8.80;2.60;;;32.90;93.20;;;;;;4989644;28;20378;-48
2021/08/08 07:33:39;;;;;;;6.00;2.40;;;33.30;92.70;;;;;;4989756;28;20045;-48
2021/08/08 07:36:43;;;;;;;6.60;2.35;;;33.90;92.00;;;;;;4989218;28;20038;-49
2021/08/08 07:39:48;;;;;;;8.30;2.80;;;32.60;92.80;;;;;;4990187;28;20042;-53
2021/08/08 07:42:53;;;;;;;9.35;3.10;;;33.00;92.60;;;;;;4990706;28;20524;-47
2021/08/08 07:46:00;;;;;;;10.43;2.55;;;34.10;91.20;;;;;;4988602;28;20045;-51
2021/08/08 07:49:04;;;;;;;9.40;2.33;;;34.10;91.20;;;;;;4989293;28;20049;-52
2021/08/08 07:52:08;;;;;;;8.48;2.55;;;34.20;90.80;;;;;;4989327;28;20054;-51
2021/08/08 07:55:13;;;;;;;14.52;3.00;;;33.50;90.60;;;;;;4989775;28;20042;-52
2021/08/08 07:58:21;;;;;;;7.28;2.63;;;33.40;91.10;;;;;;4988887;28;20057;-48
2021/08/08 08:01:31;;;;;;;9.02;2.53;;;31.30;92.20;;;;;;4989169;28;20050;-48
2021/08/08 08:04:35;;;;;;;6.60;2.40;;;31.80;92.50;;;;;;4989306;28;20424;-53
2021/08/08 08:07:40;;;;;;;9.75;2.40;;;31.10;93.20;;;;;;4988772;28;20034;-54
2021/08/08 08:10:51;;;;;;;9.68;2.70;;;33.20;91.60;;;;;;4989165;28;20057;-52
2021/08/08 08:13:55;;;;;;;5.82;2.30;;;33.40;90.50;;;;;;4989376;28;20049;-46
2021/08/08 08:17:04;;;;;;;6.90;2.20;;;34.90;89.80;;;;;;4988449;28;20038;-46
2021/08/08 08:20:09;;;;;;;10.75;2.75;;;35.10;88.90;;;;;;4990000;28;20034;-48
2021/08/08 08:23:13;;;;;;;12.80;2.90;;;35.60;87.70;;;;;;4988900;28;20046;-50
2021/08/08 08:26:17;;;;;;;8.68;2.33;;;35.60;86.70;;;;;;4989635;28;20038;-49
2021/08/08 08:29:22;;;;;;;7.95;2.58;;;36.90;84.70;;;;;;4988838;28;20067;-48
2021/08/08 08:32:26;;;;;;;7.53;2.30;;;36.10;84.80;;;;;;4977701;28;20054;-48
2021/08/08 08:35:31;;;;;;;7.20;2.45;;;36.20;84.60;;;;;;4988751;28;20440;-54
2021/08/08 08:38:36;;;;;;;10.48;2.28;;;35.30;86.30;;;;;;4988547;28;20069;-52
2021/08/08 08:41:42;;;;;;;11.07;2.50;;;34.10;87.20;;;;;;4969465;28;20046;-49
2021/08/08 08:44:47;;;;;;;8.10;2.40;;;35.60;85.00;;;;;;4969678;28;20038;-46
2021/08/08 08:47:52;;;;;;;9.60;2.90;;;36.50;83.20;;;;;;4969586;28;20042;-47
2021/08/08 08:50:59;;;;;;;10.85;2.45;;;36.90;83.00;;;;;;4970439;28;20044;-50
2021/08/08 08:54:07;;;;;;;8.60;2.53;;;37.30;81.90;;;;;;4980489;28;20045;-47
2021/08/08 08:57:11;;;;;;;7.50;2.53;;;37.10;82.00;;;;;;4968943;28;20039;-49
2021/08/08 09:00:16;;;;;;;7.80;2.75;;;38.50;79.30;;;;;;4984299;28;20405;-48
2021/08/08 09:03:21;;;;;;;5.95;2.20;;;37.00;80.20;;;;;;4973719;28;20513;-48
2021/08/08 09:06:25;;;;;;;8.15;3.20;;;36.70;82.10;;;;;;4972636;28;20041;-55
2021/08/08 09:09:34;;;;;;;7.80;2.63;;;37.60;80.10;;;;;;4983737;28;20058;-50
2021/08/08 09:12:39;;;;;;;6.72;2.50;;;38.70;78.40;;;;;;4983892;28;20035;-49
2021/08/08 09:15:43;;;;;;;8.65;2.00;;;37.30;78.00;;;;;;4973064;28;20054;-48
2021/08/08 09:18:52;;;;;;;13.68;2.67;;;38.90;77.30;;;;;;4972135;28;20421;-48
2021/08/08 09:21:59;;;;;;;6.88;2.65;;;37.50;78.90;;;;;;4972995;28;20042;-51
2021/08/08 09:25:04;;;;;;;11.52;2.72;;;37.70;78.60;;;;;;4973056;28;20055;-49
2021/08/08 09:28:11;;;;;;;9.60;2.65;;;36.50;79.70;;;;;;4983264;28;20054;-48
2021/08/08 09:31:20;;;;;;;10.18;3.15;;;34.10;82.40;;;;;;4972842;28;20045;-48
2021/08/08 09:34:27;;;;;;;6.03;2.20;;;34.10;84.60;;;;;;4972673;28;20053;-48
2021/08/08 09:37:31;;;;;;;9.43;2.85;;;33.20;84.40;;;;;;4973129;28;20038;-46
2021/08/08 09:40:40;;;;;;;9.10;3.13;;;32.70;86.00;;;;;;4988224;28;20038;-50
2021/08/08 09:43:44;;;;;;;8.57;2.90;;;34.90;84.30;;;;;;4992756;28;20042;-50
2021/08/08 09:46:56;;;;;;;6.78;2.75;;;33.60;85.20;;;;;;4992425;28;20042;-48
2021/08/08 09:50:05;;;;;;;5.25;2.25;;;36.40;81.90;;;;;;4991465;28;20038;-48
2021/08/08 09:53:21;;;;;;;10.05;2.90;;;35.50;81.30;;;;;;4991747;28;20050;-54
2021/08/08 09:56:25;;;;;;;8.02;2.65;;;35.20;83.50;;;;;;4992742;28;20049;-51
2021/08/08 09:59:30;;;;;;;8.63;2.28;;;38.00;79.90;;;;;;4992087;28;20045;-48
2021/08/08 10:02:35;;;;;;;8.98;2.90;;;38.50;77.80;;;;;;4991575;28;20047;-48
2021/08/08 10:05:42;;;;;;;6.28;2.60;;;37.10;80.30;;;;;;4992411;28;20042;-50
2021/08/08 10:08:47;;;;;;;9.80;3.22;;;32.70;87.00;;;;;;4991104;28;20038;-48
2021/08/08 10:11:52;;;;;;;7.72;3.13;;;32.60;88.00;;;;;;4992086;28;20045;-53
2021/08/08 10:14:57;;;;;;;6.35;2.42;;;34.80;83.90;;;;;;4991180;28;20046;-50
2021/08/08 10:18:02;;;;;;;7.28;3.20;;;36.60;81.50;;;;;;4991258;28;20050;-46
2021/08/08 10:21:09;;;;;;;6.97;2.83;;;34.50;82.70;;;;;;4991986;28;20073;-50
2021/08/08 10:24:17;;;;;;;7.50;2.90;;;34.70;83.40;;;;;;4991769;28;20119;-50
2021/08/08 10:27:24;;;;;;;8.75;3.15;;;32.20;86.20;;;;;;4990504;28;20045;-48
2021/08/08 10:30:33;;;;;;;9.30;2.85;;;33.00;87.30;;;;;;4991581;28;20062;-46
2021/08/08 10:33:50;;;;;;;7.70;3.03;;;34.20;84.90;;;;;;4991596;28;20046;-46
2021/08/08 10:37:07;;;;;;;12.38;3.45;;;34.40;83.80;;;;;;4991638;28;20042;-51
2021/08/08 10:40:12;;;;;;;7.45;2.70;;;33.30;85.70;;;;;;4991129;28;20508;-49
2021/08/08 10:43:31;;;;;;;9.18;3.30;;;35.10;83.50;;;;;;4991430;28;20046;-49
2021/08/08 10:46:51;;;;;;;11.73;3.22;;;35.00;83.00;;;;;;4990724;28;20405;-49
2021/08/08 10:50:10;;;;;;;10.15;3.63;;;33.50;83.90;;;;;;4990423;28;20037;-49
2021/08/08 10:53:23;;;;;;;8.40;2.65;;;35.00;82.50;;;;;;4991356;28;20052;-50
2021/08/08 10:56:48;;;;;;;13.20;3.78;;;36.50;79.90;;;;;;4991314;28;20051;-49
2021/08/08 10:59:54;;;;;;;8.95;3.03;;;38.20;76.60;;;;;;4990847;28;20045;-54
2021/08/08 11:03:16;;;;;;;6.40;2.83;;;37.50;76.40;;;;;;4990566;28;20050;-54
2021/08/08 11:06:24;;;;;;;6.78;2.50;;;39.40;76.30;;;;;;4990933;28;20063;-51
2021/08/08 11:09:34;;;;;;;6.18;2.92;;;37.50;78.20;;;;;;4990273;28;20065;-49
2021/08/08 11:12:42;;;;;;;6.97;2.78;;;37.00;78.30;;;;;;4990927;28;20053;-51
2021/08/08 11:15:47;;;;;;;8.05;2.65;;;37.90;78.00;;;;;;4990723;28;20053;-49
2021/08/08 11:18:56;;;;;;;7.60;2.80;;;38.10;76.20;;;;;;4990242;28;20055;-54
2021/08/08 11:22:06;;;;;;;9.40;3.33;;;35.80;76.70;;;;;;4990151;28;20055;-47
2021/08/08 11:25:15;;;;;;;6.05;2.40;;;35.80;78.30;;;;;;4990493;28;20040;-48
2021/08/08 11:28:19;;;;;;;7.28;2.65;;;38.30;75.40;;;;;;4990042;28;20042;-48
2021/08/08 11:31:29;;;;;;;8.63;2.60;;;35.30;76.00;;;;;;4990473;28;20063;-55
2021/08/08 11:34:34;;;;;;;5.75;2.25;;;35.00;76.80;;;;;;4990478;28;20428;-49
2021/08/08 11:37:46;;;;;;;8.02;2.53;;;33.80;78.70;;;;;;4990481;28;20045;-47
2021/08/08 11:40:50;;;;;;;7.50;2.85;;;33.20;78.40;;;;;;4987886;28;20628;-50
2021/08/08 11:44:03;;;;;;;7.95;2.60;;;34.80;77.30;;;;;;4972643;28;20526;-50
2021/08/08 11:47:08;;;;;;;4.53;1.83;;;37.10;74.60;;;;;;4970662;28;20053;-53
2021/08/08 11:50:13;;;;;;;4.32;1.98;;;39.90;69.40;;;;;;4983756;28;20507;-49
2021/08/08 11:53:19;;;;;;;4.85;2.28;;;41.40;67.50;;;;;;4989646;28;20627;-48
2021/08/08 11:56:28;;;;;;;4.82;1.80;;;38.70;66.40;;;;;;4990027;28;20500;-54
2021/08/08 11:59:34;;;;;;;6.05;2.28;;;37.10;68.70;;;;;;4970299;28;20046;-53
2021/08/08 12:02:38;;;;;;;4.90;2.20;;;38.00;67.90;;;;;;4970706;28;20046;-54
2021/08/08 12:05:43;;;;;;;6.68;2.25;;;35.70;68.40;;;;;;4970676;28;20101;-48
2021/08/08 12:08:53;;;;;;;7.90;2.70;;;34.00;71.20;;;;;;4970484;28;20054;-48
2021/08/08 12:11:58;;;;;;;5.15;2.25;;;34.70;73.70;;;;;;4970634;28;20050;-54
2021/08/08 12:15:07;;;;;;;4.97;2.20;;;36.60;71.80;;;;;;4977801;28;20122;-51
2021/08/08 12:18:13;;;;;;;9.18;2.28;;;38.30;69.70;;;;;;4989820;28;20049;-54
2021/08/08 12:21:18;;;;;;;5.80;1.80;;;40.00;68.10;;;;;;4989840;28;20045;-49
2021/08/08 12:24:32;;;;;;;6.28;1.80;;;38.20;66.30;;;;;;4990037;28;20041;-48
2021/08/08 12:27:39;;;;;;;4.32;1.58;;;39.40;65.40;;;;;;4988885;28;20070;-52
2021/08/08 12:30:44;;;;;;;4.00;1.70;;;39.50;65.40;;;;;;4989757;28;20041;-52
2021/08/08 12:33:58;;;;;;;6.50;1.83;;;39.90;65.20;;;;;;4990019;28;20050;-53
2021/08/08 12:37:07;;;;;;;5.70;1.80;;;40.60;64.70;;;;;;4989869;28;20113;-56
2021/08/08 12:40:15;;;;;;;3.78;1.75;;;40.80;63.90;;;;;;4974211;28;20046;-55
2021/08/08 12:43:25;;;;;;;7.85;2.30;;;38.70;64.30;;;;;;4989131;28;20053;-53
2021/08/08 12:46:31;;;;;;;2.58;1.58;;;39.00;64.60;;;;;;4993913;28;20069;-55
2021/08/08 12:49:38;;;;;;;7.13;2.05;;;38.50;65.10;;;;;;4993484;28;20053;-49
2021/08/08 12:52:43;;;;;;;4.53;1.75;;;39.60;64.60;;;;;;4974373;28;20062;-48
2021/08/08 12:55:48;;;;;;;8.73;2.25;;;40.30;63.70;;;;;;4974446;28;20054;-53
2021/08/08 12:58:54;;;;;;;13.05;1.67;;;40.60;62.90;;;;;;4974031;28;20045;-47
2021/08/08 13:01:59;;;;;;;4.35;1.67;;;40.80;63.00;;;;;;4974372;28;20050;-50
2021/08/08 13:05:04;;;;;;;4.95;1.77;;;38.50;65.30;;;;;;4974490;28;20050;-48
2021/08/08 13:08:08;;;;;;;6.68;1.77;;;39.40;64.60;;;;;;4981941;28;20057;-55
2021/08/08 13:11:13;;;;;;;4.75;2.13;;;39.70;64.00;;;;;;4993386;28;20053;-56
2021/08/08 13:14:18;;;;;;;3.90;1.50;;;39.50;63.60;;;;;;4993483;28;20057;-55
2021/08/08 13:17:23;;;;;;;5.60;2.00;;;37.40;64.50;;;;;;4992999;28;20049;-51
2021/08/08 13:20:28;;;;;;;3.33;1.75;;;37.40;66.70;;;;;;4991720;28;20057;-52
2021/08/08 13:23:31;;;;;;;3.85;1.63;;;38.30;65.90;;;;;;4992620;28;20045;-50
2021/08/08 13:26:35;;;;;;;5.32;1.60;;;38.30;65.60;;;;;;4992824;28;20045;-52
2021/08/08 13:29:40;;;;;;;3.72;1.60;;;37.90;65.90;;;;;;4991834;28;20062;-52
2021/08/08 13:32:45;;;;;;;4.10;1.77;;;38.20;65.90;;;;;;4992596;28;20050;-48
2021/08/08 13:35:50;;;;;;;4.28;1.73;;;35.90;66.40;;;;;;4991917;28;20045;-50
2021/08/08 13:38:54;;;;;;;3.97;1.80;;;37.00;67.10;;;;;;4992144;28;20533;-50
2021/08/08 13:42:00;;;;;;;6.60;1.58;;;37.00;66.90;;;;;;4992516;28;20045;-52
2021/08/08 13:45:05;;;;;;;2.78;2.00;;;37.20;65.40;;;;;;4992005;28;20038;-52
2021/08/08 13:48:10;;;;;;;8.20;1.85;;;35.10;66.40;;;;;;4991270;28;20520;-54
2021/08/08 13:51:14;;;;;;;7.22;1.83;;;35.90;66.70;;;;;;4992140;28;20045;-51
2021/08/08 13:54:19;;;;;;;4.07;1.90;;;36.40;68.00;;;;;;4991766;28;20050;-48
2021/08/08 13:57:23;;;;;;;6.03;1.85;;;37.10;67.40;;;;;;4992296;28;20069;-52
2021/08/08 14:00:27;;;;;;;4.43;1.70;;;37.10;66.60;;;;;;4992098;28;20045;-49
2021/08/08 14:03:31;;;;;;;3.78;1.60;;;36.80;66.20;;;;;;4992285;28;20057;-53
2021/08/08 14:06:35;;;;;;;3.08;1.48;;;36.50;65.60;;;;;;4992202;28;20053;-47
2021/08/08 14:09:39;;;;;;;3.53;1.77;;;36.40;66.30;;;;;;4991878;28;20062;-50
2021/08/08 14:12:45;;;;;;;3.92;1.80;;;36.30;66.20;;;;;;4991294;28;20512;-50
2021/08/08 14:15:51;;;;;;;5.00;1.63;;;36.20;66.60;;;;;;4992145;28;20053;-54
2021/08/08 14:18:56;;;;;;;4.65;1.90;;;36.50;65.60;;;;;;4991458;28;20049;-54
2021/08/08 14:22:00;;;;;;;7.25;1.98;;;36.30;66.10;;;;;;4991340;28;20412;-54
2021/08/08 14:25:05;;;;;;;4.63;1.67;;;36.30;63.00;;;;;;4991682;28;20034;-53
2021/08/08 14:28:09;;;;;;;3.33;1.42;;;36.00;63.30;;;;;;4991221;28;20049;-55
2021/08/08 14:31:14;;;;;;;5.00;1.70;;;36.00;63.60;;;;;;4991283;28;20045;-55
2021/08/08 14:34:18;;;;;;;2.95;1.55;;;35.80;62.60;;;;;;4991370;28;20053;-55
2021/08/08 14:37:23;;;;;;;3.35;1.40;;;35.00;63.60;;;;;;4991632;28;20057;-54
2021/08/08 14:40:27;;;;;;;5.38;1.65;;;34.10;61.90;;;;;;4990884;28;20515;-49
2021/08/08 14:43:32;;;;;;;3.45;1.75;;;33.60;63.90;;;;;;4990454;28;20054;-53
2021/08/08 14:46:36;;;;;;;2.83;1.63;;;34.20;64.40;;;;;;4991364;28;20061;-49
2021/08/08 14:49:40;;;;;;;3.75;1.60;;;34.80;64.80;;;;;;4991041;28;20049;-55
2021/08/08 14:52:44;;;;;;;6.25;1.55;;;35.60;65.90;;;;;;4991062;28;20508;-51
2021/08/08 14:55:49;;;;;;;5.72;1.73;;;35.90;64.40;;;;;;4990299;28;20466;-52
2021/08/08 14:58:53;;;;;;;5.47;1.77;;;36.10;65.70;;;;;;4990816;28;20050;-49
2021/08/08 15:01:57;;;;;;;5.18;1.38;;;35.80;65.00;;;;;;4990957;28;20046;-55
2021/08/08 15:05:03;;;;;;;3.58;1.40;;;35.60;63.90;;;;;;4991254;28;20061;-55
2021/08/08 15:08:08;;;;;;;4.45;1.45;;;35.40;62.90;;;;;;4990655;28;20042;-53
2021/08/08 15:11:12;;;;;;;4.88;1.60;;;35.00;61.40;;;;;;4990669;28;20049;-55
2021/08/08 15:14:18;;;;;;;3.30;1.50;;;33.80;62.00;;;;;;4989914;28;20421;-49
2021/08/08 15:17:23;;;;;;;3.13;1.60;;;33.90;62.00;;;;;;4990840;28;20041;-51
2021/08/08 15:20:28;;;;;;;1.92;0.98;;;32.60;61.30;;;;;;4990509;28;20045;-51
2021/08/08 15:23:33;;;;;;;4.90;1.67;;;33.50;61.40;;;;;;4990780;28;20045;-52
2021/08/08 15:26:37;;;;;;;10.88;1.52;;;34.00;60.80;;;;;;4989399;28;20053;-51
2021/08/08 15:29:41;;;;;;;3.30;1.30;;;34.50;61.20;;;;;;4989630;28;20053;-48
2021/08/08 15:32:46;;;;;;;2.90;1.50;;;34.70;60.90;;;;;;5000512;28;20528;-52
2021/08/08 15:35:50;;;;;;;9.18;1.70;;;34.80;61.30;;;;;;4990293;28;20041;-54
2021/08/08 15:38:54;;;;;;;4.78;1.60;;;34.60;60.70;;;;;;4989984;28;20049;-54
2021/08/08 15:41:59;;;;;;;2.70;1.50;;;34.50;61.50;;;;;;4988488;28;20053;-53
2021/08/08 15:45:05;;;;;;;4.95;1.60;;;34.20;62.10;;;;;;4989909;28;20634;-53
2021/08/08 15:48:10;;;;;;;4.03;1.23;;;34.00;62.60;;;;;;4989982;28;20429;-53
2021/08/08 15:51:14;;;;;;;4.95;1.30;;;34.40;61.20;;;;;;4988996;28;20053;-55
2021/08/08 15:54:17;;;;;;;3.10;1.40;;;34.50;60.50;;;;;;4990474;28;20064;-55
2021/08/08 15:57:22;;;;;;;3.45;1.13;;;34.30;61.30;;;;;;4990370;28;20515;-53
2021/08/08 16:00:26;;;;;;;2.17;1.02;;;34.20;59.90;;;;;;4989634;28;20045;-48
2021/08/08 16:03:31;;;;;;;3.42;1.40;;;34.20;60.80;;;;;;4989243;28;20061;-55
2021/08/08 16:06:35;;;;;;;5.07;1.13;;;34.10;60.30;;;;;;4988545;28;20530;-51